Time;durP1;ratioP1;P1;durP2;ratioP2;P2;SDS_P1;SDS_P2;PMS_P1;PMS_P2;Temp;Humidity;BMP_temperature;BMP_pressure;BME280_temperature;BME280_humidity;BME280_pressure;Samples;Min_cycle;Max_cycle;Signal;HPM_P1;HPM_P2
2022/04/30 00:01:19;;;;;;;16.50;6.10;;;5.00;99.90;;;;;;5051392;28;20072;-86
2022/04/30 00:03:48;;;;;;;17.27;6.33;;;5.00;99.90;;;;;;5052424;28;20056;-86
2022/04/30 00:06:13;;;;;;;16.50;6.60;;;5.00;99.90;;;;;;5053461;28;20049;-87
2022/04/30 00:08:39;;;;;;;16.50;6.63;;;5.00;99.90;;;;;;5051873;28;20045;-87
2022/04/30 00:11:07;;;;;;;14.70;6.40;;;4.90;99.90;;;;;;5053470;28;20056;-86
2022/04/30 00:13:33;;;;;;;19.17;7.03;;;4.90;99.90;;;;;;5051774;28;20040;-87
2022/04/30 00:15:59;;;;;;;15.00;6.20;;;4.80;99.90;;;;;;5052354;28;20110;-87
2022/04/30 00:18:25;;;;;;;16.40;6.70;;;4.80;99.90;;;;;;5053983;28;20119;-86
2022/04/30 00:20:51;;;;;;;16.67;6.73;;;4.80;99.90;;;;;;5052388;28;20496;-86
2022/04/30 00:23:19;;;;;;;15.87;6.80;;;4.80;99.90;;;;;;5053386;28;20049;-86
2022/04/30 00:25:55;;;;;;;20.27;6.70;;;4.70;99.90;;;;;;5051600;28;20056;-86
2022/04/30 00:28:24;;;;;;;14.30;6.20;;;4.70;99.90;;;;;;5053490;28;20037;-86
2022/04/30 00:30:50;;;;;;;15.73;7.50;;;4.70;99.90;;;;;;5053530;28;20052;-86
2022/04/30 00:33:16;;;;;;;15.47;7.17;;;4.70;99.90;;;;;;5051797;28;20033;-87
2022/04/30 00:35:43;;;;;;;17.77;6.83;;;4.70;99.90;;;;;;5051437;28;20535;-86
2022/04/30 00:38:09;;;;;;;17.07;6.93;;;4.60;99.90;;;;;;5052144;28;20049;-86
2022/04/30 00:40:35;;;;;;;18.03;7.10;;;4.60;99.90;;;;;;5051642;28;20048;-86
2022/04/30 00:43:01;;;;;;;18.20;7.27;;;4.60;99.90;;;;;;5053192;28;20045;-86
2022/04/30 00:45:26;;;;;;;17.23;7.63;;;4.50;99.90;;;;;;5052425;28;20041;-86
2022/04/30 00:47:52;;;;;;;19.00;7.23;;;4.50;99.90;;;;;;5053002;28;20530;-86
2022/04/30 00:50:21;;;;;;;15.67;7.60;;;4.50;99.90;;;;;;5052741;28;20128;-86
2022/04/30 00:52:47;;;;;;;15.90;7.20;;;4.50;99.90;;;;;;5051383;28;20480;-86
2022/04/30 00:55:13;;;;;;;18.10;7.27;;;4.50;99.90;;;;;;5051621;28;20128;-86
2022/04/30 00:57:43;;;;;;;18.20;6.90;;;4.40;99.90;;;;;;5052633;28;20441;-86
2022/04/30 01:00:09;;;;;;;16.43;7.43;;;4.40;99.90;;;;;;5053386;28;20044;-86
2022/04/30 01:02:36;;;;;;;18.97;7.70;;;4.40;99.90;;;;;;5052898;28;20057;-86
2022/04/30 01:05:02;;;;;;;19.30;7.17;;;4.30;99.90;;;;;;5052423;28;20102;-86
2022/04/30 01:07:30;;;;;;;17.07;7.33;;;4.30;99.90;;;;;;5051585;28;20041;-86
2022/04/30 01:09:56;;;;;;;19.40;7.83;;;4.20;99.90;;;;;;5052537;28;20080;-86
2022/04/30 01:12:23;;;;;;;17.70;7.67;;;4.20;99.90;;;;;;5052987;28;20041;-86
2022/04/30 01:14:51;;;;;;;16.37;7.00;;;4.10;99.90;;;;;;5052853;28;20048;-86
2022/04/30 01:17:17;;;;;;;16.17;7.23;;;4.00;99.90;;;;;;5050899;28;20045;-86
2022/04/30 01:19:43;;;;;;;16.57;7.20;;;4.00;99.90;;;;;;5052223;28;20175;-86
2022/04/30 01:22:13;;;;;;;18.50;7.30;;;3.90;99.90;;;;;;5051255;28;20053;-86
2022/04/30 01:24:40;;;;;;;17.13;7.57;;;3.90;99.90;;;;;;5051875;28;20067;-86
2022/04/30 01:27:07;;;;;;;14.73;7.30;;;3.80;99.90;;;;;;5051922;28;20492;-86
2022/04/30 01:29:33;;;;;;;14.33;6.37;;;3.70;99.90;;;;;;5052661;28;20033;-86
2022/04/30 01:37:36;;;;;;;17.73;6.87;;;3.50;99.90;;;;;;5055531;28;20045;-86
2022/04/30 01:40:12;;;;;;;16.53;7.03;;;3.50;99.90;;;;;;5051687;28;20044;-86
2022/04/30 01:42:44;;;;;;;17.83;7.77;;;3.60;99.90;;;;;;5052923;28;20044;-86
2022/04/30 01:45:10;;;;;;;18.33;7.63;;;3.50;99.90;;;;;;5055445;28;20047;-86
2022/04/30 01:47:39;;;;;;;19.93;7.80;;;3.50;99.90;;;;;;5052017;28;20041;-87
2022/04/30 01:50:06;;;;;;;15.77;7.07;;;3.40;99.90;;;;;;5051511;28;20049;-86
2022/04/30 01:52:31;;;;;;;16.73;7.67;;;3.40;99.90;;;;;;5050723;28;20045;-87
2022/04/30 01:54:58;;;;;;;16.73;7.47;;;3.30;99.90;;;;;;5052734;28;20037;-87
2022/04/30 01:57:26;;;;;;;17.73;7.67;;;3.40;99.90;;;;;;5052641;28;20049;-86
2022/04/30 01:59:59;;;;;;;16.93;7.83;;;3.30;99.90;;;;;;5050383;28;20080;-86
2022/04/30 02:02:34;;;;;;;14.00;6.75;;;3.30;99.90;;;;;;5051490;28;20063;-87
2022/04/30 02:05:03;;;;;;;18.17;8.47;;;3.30;99.90;;;;;;5049262;28;20048;-86
2022/04/30 02:07:30;;;;;;;17.10;7.80;;;3.30;99.90;;;;;;5051536;28;20075;-87
2022/04/30 02:09:58;;;;;;;15.57;7.30;;;3.30;99.90;;;;;;5052039;28;20045;-86
2022/04/30 02:12:25;;;;;;;17.67;7.23;;;3.20;99.90;;;;;;5050837;28;20456;-86
2022/04/30 02:14:53;;;;;;;16.20;7.27;;;3.20;99.90;;;;;;5050418;28;20072;-87
2022/04/30 02:17:20;;;;;;;15.47;7.60;;;3.20;99.90;;;;;;5050830;28;20520;-87
2022/04/30 02:22:31;;;;;;;17.83;7.77;;;3.10;99.90;;;;;;5051192;28;20452;-87
2022/04/30 02:25:00;;;;;;;19.07;7.93;;;3.10;99.90;;;;;;5053785;28;20049;-87
2022/04/30 02:27:29;;;;;;;17.17;7.90;;;3.10;99.90;;;;;;5055553;28;20052;-87
2022/04/30 02:29:54;;;;;;;22.47;8.00;;;3.10;99.90;;;;;;5053825;28;20484;-87
2022/04/30 02:32:20;;;;;;;18.03;7.57;;;3.00;99.90;;;;;;5054823;28;20055;-87
2022/04/30 02:34:45;;;;;;;17.73;8.20;;;3.00;99.90;;;;;;5054822;28;20086;-87
2022/04/30 02:37:14;;;;;;;17.60;7.77;;;3.00;99.90;;;;;;5055700;28;20666;-87
2022/04/30 02:39:45;;;;;;;16.57;7.53;;;3.00;99.90;;;;;;5055522;28;20056;-87
2022/04/30 02:42:11;;;;;;;19.20;7.47;;;2.90;99.90;;;;;;5053969;28;20041;-87
2022/04/30 02:44:37;;;;;;;16.10;7.97;;;2.90;99.90;;;;;;5055071;28;20045;-87
2022/04/30 02:47:03;;;;;;;17.23;8.10;;;2.90;99.90;;;;;;5054644;28;20510;-87
2022/04/30 02:49:29;;;;;;;18.57;7.77;;;2.80;99.90;;;;;;5054997;28;20043;-87
2022/04/30 02:51:54;;;;;;;20.07;8.43;;;2.80;99.90;;;;;;5054842;28;20500;-86
2022/04/30 02:54:20;;;;;;;19.47;8.27;;;2.80;99.90;;;;;;5053575;28;20045;-87
2022/04/30 02:56:45;;;;;;;18.33;8.27;;;2.80;99.90;;;;;;5053341;28;20052;-86
2022/04/30 03:01:55;;;;;;;18.23;8.38;;;2.80;99.90;;;;;;5053082;28;20053;-87
2022/04/30 03:04:20;;;;;;;17.17;8.43;;;2.80;99.90;;;;;;5055154;28;20045;-87
2022/04/30 03:06:46;;;;;;;18.23;8.47;;;2.80;99.90;;;;;;5054718;28;20049;-87
2022/04/30 03:09:12;;;;;;;22.97;8.93;;;2.80;99.90;;;;;;5054445;28;20124;-87
2022/04/30 03:11:38;;;;;;;20.30;8.00;;;2.80;99.90;;;;;;5054249;28;20044;-87
2022/04/30 03:14:04;;;;;;;18.30;8.97;;;2.70;99.90;;;;;;5053897;28;20396;-88
2022/04/30 03:22:00;;;;;;;17.90;8.63;;;2.80;99.90;;;;;;5054160;28;20369;-87
2022/04/30 03:24:29;;;;;;;20.70;8.73;;;2.80;99.90;;;;;;5054570;28;20476;-88
2022/04/30 03:26:55;;;;;;;19.83;9.13;;;2.90;99.90;;;;;;5058015;28;20052;-87
2022/04/30 03:29:20;;;;;;;20.80;9.13;;;2.90;99.90;;;;;;5053191;28;20102;-87
2022/04/30 03:31:47;;;;;;;24.87;9.00;;;3.00;99.90;;;;;;5053923;28;20039;-87
2022/04/30 03:34:14;;;;;;;24.70;9.70;;;3.00;99.90;;;;;;5054206;28;20409;-87
2022/04/30 03:36:40;;;;;;;20.47;9.73;;;3.10;99.90;;;;;;5057236;28;20399;-87
2022/04/30 03:39:06;;;;;;;24.17;10.40;;;3.10;99.90;;;;;;5053583;28;20495;-88
2022/04/30 03:41:32;;;;;;;22.83;9.90;;;3.10;99.90;;;;;;5054981;28;20377;-87
2022/04/30 03:43:58;;;;;;;24.10;9.77;;;3.20;99.90;;;;;;5052975;28;20060;-87
2022/04/30 03:46:24;;;;;;;25.30;10.37;;;3.20;99.90;;;;;;5054251;28;20052;-87
2022/04/30 03:48:56;;;;;;;22.50;9.37;;;3.20;99.90;;;;;;5052512;28;20045;-87
2022/04/30 03:51:23;;;;;;;23.77;9.70;;;3.20;99.90;;;;;;5052724;28;20053;-87
2022/04/30 03:53:49;;;;;;;21.97;9.00;;;3.20;99.90;;;;;;5053106;28;20405;-87
2022/04/30 03:56:22;;;;;;;21.83;9.63;;;3.30;99.90;;;;;;5052973;28;20049;-87
2022/04/30 03:58:48;;;;;;;20.13;9.20;;;3.30;99.90;;;;;;5053955;28;20037;-87
2022/04/30 04:01:15;;;;;;;22.77;10.30;;;3.30;99.90;;;;;;5044640;28;20041;-87
2022/04/30 04:03:42;;;;;;;21.13;9.33;;;3.30;99.90;;;;;;5034161;28;20037;-87
2022/04/30 04:06:08;;;;;;;20.47;9.47;;;3.30;99.90;;;;;;5032183;28;20045;-88
2022/04/30 04:08:35;;;;;;;21.63;9.90;;;3.40;99.90;;;;;;5034974;28;20051;-88
2022/04/30 04:11:01;;;;;;;20.17;9.00;;;3.50;99.90;;;;;;5034142;28;20087;-87
2022/04/30 04:18:56;;;;;;;18.25;8.65;;;3.50;99.90;;;;;;5033921;28;20057;-87
2022/04/30 04:21:22;;;;;;;21.10;9.77;;;3.60;99.90;;;;;;5033945;28;20093;-88
2022/04/30 04:26:32;;;;;;;;;;;3.70;99.90;;;;;;5033405;28;20042;-87
2022/04/30 04:28:58;;;;;;;23.27;10.77;;;3.70;99.90;;;;;;5033547;28;20278;-87
2022/04/30 04:31:24;;;;;;;21.20;10.33;;;3.60;99.90;;;;;;5033718;28;20037;-87
2022/04/30 04:33:51;;;;;;;23.33;11.97;;;3.70;99.90;;;;;;5032508;28;20045;-88
2022/04/30 04:36:17;;;;;;;21.03;9.93;;;3.90;99.90;;;;;;5048453;28;20056;-87
2022/04/30 04:38:43;;;;;;;21.53;8.93;;;3.70;99.90;;;;;;5032940;28;20513;-87
2022/04/30 04:41:09;;;;;;;20.47;9.47;;;3.90;99.90;;;;;;5031407;28;20057;-87
2022/04/30 04:43:34;;;;;;;20.27;9.60;;;3.90;99.90;;;;;;5033090;28;20046;-88
2022/04/30 04:46:02;;;;;;;19.17;8.90;;;4.00;99.90;;;;;;5033186;28;20083;-88
2022/04/30 04:48:29;;;;;;;19.00;9.37;;;4.10;99.90;;;;;;5032766;28;20108;-87
2022/04/30 04:50:54;;;;;;;19.07;8.90;;;4.20;99.90;;;;;;5031676;28;20521;-87
2022/04/30 04:53:20;;;;;;;17.83;8.67;;;4.30;99.90;;;;;;5031864;28;20172;-87
2022/04/30 04:55:45;;;;;;;21.00;8.83;;;4.30;99.90;;;;;;5030648;28;20042;-88
2022/04/30 04:58:11;;;;;;;19.30;8.73;;;4.40;99.90;;;;;;5031830;28;20049;-87
2022/04/30 05:00:37;;;;;;;17.33;8.13;;;4.50;99.90;;;;;;5031224;28;20041;-87
2022/04/30 05:03:02;;;;;;;20.90;8.30;;;4.60;99.90;;;;;;5031287;28;20044;-88
2022/04/30 05:05:28;;;;;;;18.33;9.00;;;5.00;99.90;;;;;;5031516;28;20037;-87
2022/04/30 05:07:54;;;;;;;18.50;8.80;;;4.90;99.90;;;;;;5032782;28;20044;-87
2022/04/30 05:10:19;;;;;;;18.93;8.07;;;5.00;99.90;;;;;;5032886;28;20100;-88
2022/04/30 05:12:46;;;;;;;18.13;8.13;;;5.10;99.90;;;;;;5032478;28;20045;-87
2022/04/30 05:15:12;;;;;;;20.27;9.07;;;5.20;99.90;;;;;;5031284;28;20045;-88
2022/04/30 05:17:38;;;;;;;17.73;8.80;;;5.30;99.90;;;;;;5036205;28;20105;-86
2022/04/30 05:20:05;;;;;;;17.47;8.30;;;5.30;99.90;;;;;;5034421;28;20084;-88
2022/04/30 05:22:31;;;;;;;21.63;8.80;;;5.40;99.90;;;;;;5034251;28;20045;-88
2022/04/30 05:24:56;;;;;;;15.20;7.70;;;5.50;99.90;;;;;;5032692;28;20120;-87
2022/04/30 05:27:22;;;;;;;21.23;8.27;;;5.50;99.90;;;;;;5035718;28;20136;-88
2022/04/30 05:29:48;;;;;;;19.63;7.73;;;5.60;99.90;;;;;;5032471;28;20034;-88
2022/04/30 05:32:13;;;;;;;16.50;7.97;;;5.60;99.90;;;;;;5035634;28;20485;-87
2022/04/30 05:34:39;;;;;;;17.47;8.27;;;5.70;99.90;;;;;;5034101;28;20038;-87
2022/04/30 05:37:05;;;;;;;16.67;7.93;;;5.70;99.90;;;;;;5033652;28;20080;-87
2022/04/30 05:39:31;;;;;;;14.83;7.40;;;5.70;99.90;;;;;;5037763;28;20096;-87
2022/04/30 05:41:56;;;;;;;16.77;7.70;;;5.70;99.90;;;;;;5032953;28;20045;-88
2022/04/30 05:44:22;;;;;;;16.90;7.90;;;5.70;99.90;;;;;;5033353;28;20052;-89
2022/04/30 05:46:49;;;;;;;19.70;7.73;;;5.70;99.90;;;;;;5034169;28;20051;-88
2022/04/30 05:49:14;;;;;;;19.30;8.03;;;5.80;99.90;;;;;;5033211;28;20489;-88
2022/04/30 05:51:40;;;;;;;14.33;6.90;;;5.80;99.90;;;;;;5032839;28;20047;-88
2022/04/30 05:54:07;;;;;;;16.80;7.93;;;5.80;99.90;;;;;;5034392;28;20080;-88
2022/04/30 05:56:32;;;;;;;14.37;7.37;;;5.90;99.90;;;;;;5034484;28;20049;-88
2022/04/30 05:58:58;;;;;;;17.10;8.00;;;6.00;99.90;;;;;;5031888;28;20106;-88
2022/04/30 06:01:23;;;;;;;14.60;6.80;;;6.10;99.90;;;;;;5037419;28;20042;-87
2022/04/30 06:03:49;;;;;;;16.63;7.50;;;6.20;99.90;;;;;;5035807;28;20049;-88
2022/04/30 06:06:14;;;;;;;16.03;7.87;;;6.30;99.90;;;;;;5035461;28;20128;-88
2022/04/30 06:08:40;;;;;;;15.87;7.77;;;6.40;99.90;;;;;;5035596;28;20049;-87
2022/04/30 06:11:06;;;;;;;13.73;7.47;;;6.50;99.90;;;;;;5037595;28;20373;-88
2022/04/30 06:13:31;;;;;;;20.30;8.00;;;6.60;99.90;;;;;;5036200;28;20049;-87
2022/04/30 06:15:57;;;;;;;13.87;7.40;;;6.80;99.90;;;;;;5036205;28;20374;-88
2022/04/30 06:18:25;;;;;;;14.30;7.37;;;6.90;99.90;;;;;;5034956;28;20057;-88
2022/04/30 06:20:50;;;;;;;17.45;7.43;;;7.00;99.90;;;;;;5035920;28;20408;-92
2022/04/30 06:23:16;;;;;;;15.03;6.97;;;7.10;99.90;;;;;;5037235;28;20051;-91
2022/04/30 06:25:45;;;;;;;14.55;7.88;;;7.20;99.90;;;;;;5034440;28;20041;-89
2022/04/30 06:28:12;;;;;;;13.20;6.65;;;7.30;99.90;;;;;;5038371;28;20049;-95
2022/04/30 06:30:39;;;;;;;14.10;7.18;;;7.40;99.90;;;;;;5035953;28;20473;-90
2022/04/30 06:33:05;;;;;;;14.88;6.72;;;7.50;99.90;;;;;;5035826;28;20057;-89
2022/04/30 06:35:30;;;;;;;15.50;6.68;;;7.60;99.90;;;;;;5037599;28;20485;-92
2022/04/30 06:37:56;;;;;;;15.68;6.95;;;7.70;99.90;;;;;;5055473;28;20041;-93
2022/04/30 06:40:24;;;;;;;15.60;6.75;;;7.80;99.90;;;;;;5039311;28;20057;-93
2022/04/30 06:42:50;;;;;;;13.50;6.63;;;7.90;99.90;;;;;;5041135;28;20053;-93
2022/04/30 06:45:17;;;;;;;18.45;6.60;;;8.10;99.90;;;;;;5040220;28;20038;-95
2022/04/30 06:47:43;;;;;;;14.80;6.57;;;8.80;99.90;;;;;;5038615;28;20080;-95
2022/04/30 06:50:14;;;;;;;14.45;6.45;;;8.00;99.90;;;;;;5039218;28;20091;-94
2022/04/30 06:58:44;;;;;;;12.18;5.22;;;8.30;99.90;;;;;;5044119;28;20110;-95
2022/04/30 07:01:40;;;;;;;14.30;5.93;;;8.70;99.90;;;;;;5045175;28;20057;-94
2022/04/30 07:04:10;;;;;;;15.75;5.60;;;8.90;99.90;;;;;;5042713;28;20046;-95
2022/04/30 07:06:37;;;;;;;12.68;5.40;;;9.90;99.90;;;;;;5040247;28;20572;-94
2022/04/30 07:09:07;;;;;;;12.45;5.68;;;9.10;99.90;;;;;;5043724;28;20407;-96
2022/04/30 07:11:36;;;;;;;12.73;5.45;;;10.20;99.90;;;;;;5050274;28;20592;-94
2022/04/30 07:14:02;;;;;;;11.65;5.13;;;10.00;99.90;;;;;;5039266;28;20068;-91
2022/04/30 07:16:40;;;;;;;11.05;4.88;;;9.70;99.90;;;;;;5038603;28;20477;-93
2022/04/30 07:19:09;;;;;;;11.05;5.47;;;9.40;99.90;;;;;;5075008;28;20044;-93
2022/04/30 07:21:34;;;;;;;10.65;5.00;;;9.80;99.90;;;;;;5064564;28;20131;-92
2022/04/30 07:24:12;;;;;;;10.93;5.22;;;10.30;99.90;;;;;;5076286;28;20072;-93
2022/04/30 07:26:40;;;;;;;12.93;5.30;;;11.30;99.90;;;;;;5078092;28;20391;-94
2022/04/30 07:29:06;;;;;;;10.75;5.13;;;10.00;99.90;;;;;;5075024;28;20036;-94
2022/04/30 07:31:38;;;;;;;10.82;5.03;;;10.20;99.90;;;;;;5081337;28;20040;-94
2022/04/30 07:34:04;;;;;;;13.10;5.22;;;10.30;99.90;;;;;;5073711;28;20040;-93
2022/04/30 07:36:38;;;;;;;13.68;5.75;;;10.40;99.90;;;;;;5080238;28;20377;-92
2022/04/30 07:42:08;;;;;;;10.85;4.50;;;10.40;99.90;;;;;;5112637;22;20084;-91
2022/04/30 07:44:33;;;;;;;9.27;4.70;;;10.40;99.90;;;;;;5074553;28;20071;-92
2022/04/30 07:46:59;;;;;;;10.75;4.50;;;11.70;99.90;;;;;;5075397;28;20149;-92
2022/04/30 07:49:25;;;;;;;10.15;4.47;;;10.30;99.90;;;;;;5076464;28;20118;-96
2022/04/30 07:51:55;;;;;;;11.85;4.82;;;10.50;99.90;;;;;;5076983;28;20087;-92
2022/04/30 07:54:42;;;;;;;11.70;4.90;;;10.60;99.90;;;;;;5073948;28;20041;-91
2022/04/30 07:57:08;;;;;;;10.95;4.35;;;10.20;99.90;;;;;;5072467;28;20056;-94
2022/04/30 07:59:40;;;;;;;11.77;4.68;;;10.80;99.90;;;;;;5075456;28;20145;-94
2022/04/30 08:02:12;;;;;;;10.90;5.18;;;10.80;99.90;;;;;;5073364;28;20135;-94
2022/04/30 08:04:43;;;;;;;13.23;4.68;;;10.80;99.90;;;;;;5072945;28;20040;-91
2022/04/30 08:07:08;;;;;;;11.10;4.88;;;11.00;99.90;;;;;;5073906;28;20454;-93
2022/04/30 08:09:47;;;;;;;10.65;4.55;;;11.00;99.90;;;;;;5074624;28;20086;-94
2022/04/30 08:12:13;;;;;;;10.15;4.07;;;11.10;99.90;;;;;;5074031;28;20047;-93
2022/04/30 08:14:48;;;;;;;11.23;4.43;;;12.00;99.90;;;;;;5074290;28;20040;-92
2022/04/30 08:17:14;;;;;;;10.77;4.03;;;11.20;99.90;;;;;;5073920;28;20044;-92
2022/04/30 08:19:40;;;;;;;9.95;4.30;;;11.20;99.90;;;;;;5072235;28;20132;-92
2022/04/30 08:22:08;;;;;;;12.25;4.97;;;11.10;99.90;;;;;;5073877;28;20048;-93
2022/04/30 08:24:34;;;;;;;10.32;4.60;;;12.30;99.90;;;;;;5074297;28;20080;-93
2022/04/30 08:27:18;;;;;;;12.52;4.75;;;12.10;99.90;;;;;;5078613;28;20450;-93
2022/04/30 08:29:44;;;;;;;10.88;4.50;;;11.90;99.90;;;;;;5075498;28;20041;-92
2022/04/30 08:32:10;;;;;;;9.95;4.40;;;12.80;99.90;;;;;;5079858;28;20055;-93
2022/04/30 08:34:37;;;;;;;12.38;4.10;;;12.20;99.90;;;;;;5077260;28;20048;-93
2022/04/30 08:37:03;;;;;;;9.07;3.50;;;12.50;99.90;;;;;;5094970;28;20040;-92
2022/04/30 08:39:34;;;;;;;9.20;3.60;;;12.00;99.90;;;;;;5093839;28;20119;-94
2022/04/30 08:41:59;;;;;;;10.30;4.13;;;12.40;99.90;;;;;;5093672;28;20055;-92
2022/04/30 08:44:25;;;;;;;8.77;3.53;;;12.20;99.90;;;;;;5094040;28;20394;-93
2022/04/30 08:46:54;;;;;;;11.15;4.28;;;13.10;99.90;;;;;;5093882;28;20072;-93
2022/04/30 08:49:21;;;;;;;10.15;4.55;;;11.70;99.90;;;;;;5094097;28;20062;-93
2022/04/30 08:51:46;;;;;;;9.40;4.15;;;10.30;99.90;;;;;;5095205;28;20055;-94
2022/04/30 08:54:12;;;;;;;9.68;4.30;;;12.00;99.90;;;;;;5093925;28;20044;-91
2022/04/30 08:56:38;;;;;;;14.27;4.65;;;11.40;99.90;;;;;;5095697;28;20032;-93
2022/04/30 08:59:13;;;;;;;12.48;5.05;;;11.30;99.90;;;;;;5098286;28;20044;-92
2022/04/30 09:02:11;;;;;;;12.02;5.03;;;11.10;99.90;;;;;;5102314;28;20047;-94
2022/04/30 09:04:54;;;;;;;12.90;4.78;;;11.20;99.90;;;;;;5108670;28;20056;-96
2022/04/30 09:07:22;;;;;;;13.27;5.10;;;11.60;99.90;;;;;;5093517;28;20044;-95
2022/04/30 09:09:54;;;;;;;11.88;4.82;;;11.30;99.90;;;;;;5094580;28;20040;-94
2022/04/30 09:12:33;;;;;;;12.18;5.50;;;12.10;99.90;;;;;;5104403;28;20048;-95
2022/04/30 09:14:59;;;;;;;13.85;5.30;;;11.80;99.90;;;;;;5092723;28;20086;-88
2022/04/30 09:17:28;;;;;;;14.05;4.95;;;11.00;99.90;;;;;;5093503;28;20047;-93
2022/04/30 09:20:06;;;;;;;11.38;5.05;;;11.10;99.90;;;;;;5092371;28;20472;-92
2022/04/30 09:22:41;;;;;;;11.57;4.97;;;11.10;99.90;;;;;;5091404;28;20123;-90
2022/04/30 09:25:15;;;;;;;12.43;5.07;;;10.90;99.90;;;;;;5092283;28;20055;-90
2022/04/30 09:27:45;;;;;;;11.68;4.93;;;12.40;99.90;;;;;;5091818;28;20055;-89
2022/04/30 09:30:19;;;;;;;10.38;5.15;;;11.10;99.90;;;;;;5082322;28;20395;-90
2022/04/30 09:32:45;;;;;;;11.32;5.25;;;11.40;99.90;;;;;;5082261;28;20083;-90
2022/04/30 09:38:05;;;;;;;;;;;12.20;99.90;;;;;;5075604;28;20685;-89
2022/04/30 09:40:33;;;;;;;10.20;4.18;;;11.00;99.90;;;;;;5076270;28;20011;-90
2022/04/30 09:43:01;;;;;;;9.88;3.90;;;11.80;99.90;;;;;;5075155;28;20087;-89
2022/04/30 09:45:33;;;;;;;10.88;4.10;;;11.90;99.90;;;;;;5076523;28;20129;-90
2022/04/30 09:48:00;;;;;;;10.77;4.68;;;13.00;99.90;;;;;;5076635;28;20187;-90
2022/04/30 09:56:07;;;;;;;;;;;12.40;99.90;;;;;;5085096;28;20040;-90
2022/04/30 09:58:38;;;;;;;11.25;4.22;;;12.60;99.90;;;;;;5090289;28;19920;-91
2022/04/30 10:01:05;;;;;;;9.05;4.00;;;12.80;99.90;;;;;;5096697;28;20043;-89
2022/04/30 10:03:33;;;;;;;10.75;4.30;;;13.00;99.90;;;;;;5095513;28;20391;-90
2022/04/30 10:06:02;;;;;;;10.35;3.80;;;13.00;99.90;;;;;;5094854;28;20460;-89
2022/04/30 10:08:31;;;;;;;9.15;3.80;;;13.10;99.90;;;;;;5096720;28;20040;-89
2022/04/30 10:11:15;;;;;;;10.90;4.43;;;13.30;99.90;;;;;;5095812;28;20481;-89
2022/04/30 10:14:05;;;;;;;9.02;3.80;;;13.60;99.90;;;;;;5095298;28;20044;-89
2022/04/30 10:16:31;;;;;;;9.45;3.95;;;13.80;99.90;;;;;;5095194;28;20106;-89
2022/04/30 10:19:10;;;;;;;9.50;4.25;;;14.30;99.90;;;;;;5094215;28;20047;-90
2022/04/30 10:21:37;;;;;;;9.15;3.97;;;14.70;99.90;;;;;;5095353;28;20419;-90
2022/04/30 10:24:05;;;;;;;11.32;4.57;;;15.00;99.90;;;;;;5096203;28;20090;-89
2022/04/30 10:26:30;;;;;;;9.32;4.53;;;14.80;99.90;;;;;;5095784;28;20111;-90
2022/04/30 10:29:11;;;;;;;9.48;4.00;;;14.70;99.90;;;;;;5095840;28;20086;-89
2022/04/30 10:31:45;;;;;;;9.90;4.22;;;14.80;99.90;;;;;;5095115;28;20040;-89
2022/04/30 10:34:12;;;;;;;10.57;4.40;;;14.70;99.90;;;;;;5096063;28;20050;-88
2022/04/30 10:36:39;;;;;;;10.00;4.32;;;14.70;99.90;;;;;;5095882;28;20039;-90
2022/04/30 10:39:15;;;;;;;9.02;3.92;;;14.80;99.90;;;;;;5090345;28;20124;-89
2022/04/30 10:41:42;;;;;;;10.88;3.80;;;14.90;99.90;;;;;;5078692;28;20041;-91
2022/04/30 10:44:13;;;;;;;9.55;3.70;;;14.90;99.90;;;;;;5077707;28;20127;-90
2022/04/30 10:46:53;;;;;;;10.18;4.07;;;14.70;99.90;;;;;;5077194;28;20040;-91
2022/04/30 10:49:19;;;;;;;9.57;4.38;;;14.20;99.90;;;;;;5074580;28;20052;-91
2022/04/30 10:51:59;;;;;;;9.85;4.10;;;14.30;99.90;;;;;;5075706;28;20039;-92
2022/04/30 10:54:34;;;;;;;8.95;3.90;;;14.10;99.90;;;;;;5080499;28;20044;-91
2022/04/30 10:57:09;;;;;;;12.00;4.00;;;13.00;99.90;;;;;;5079020;28;20055;-92
2022/04/30 10:59:44;;;;;;;9.88;3.88;;;12.70;99.90;;;;;;5076669;28;20387;-92
2022/04/30 11:02:15;;;;;;;9.07;4.15;;;13.70;99.90;;;;;;5075762;28;20515;-92
2022/04/30 11:04:44;;;;;;;11.80;4.55;;;13.50;99.90;;;;;;5084492;28;20051;-90
2022/04/30 11:07:54;;;;;;;9.77;4.20;;;13.40;99.90;;;;;;5075059;28;20187;-91
2022/04/30 11:10:38;;;;;;;9.73;4.30;;;13.00;99.90;;;;;;5042024;28;20502;-90
2022/04/30 11:13:06;;;;;;;9.50;4.03;;;14.20;99.90;;;;;;5074806;28;20037;-91
2022/04/30 11:15:35;;;;;;;8.35;4.00;;;13.30;99.90;;;;;;5073177;28;20068;-93
2022/04/30 11:18:04;;;;;;;10.27;4.32;;;13.50;99.90;;;;;;5073156;28;20040;-89
2022/04/30 11:20:29;;;;;;;10.45;4.25;;;13.30;99.90;;;;;;5073801;28;20048;-92
2022/04/30 11:23:02;;;;;;;12.68;4.40;;;13.90;99.90;;;;;;5073681;28;20102;-94
2022/04/30 11:25:46;;;;;;;9.73;4.38;;;13.30;99.90;;;;;;5122455;22;20050;-91
2022/04/30 11:28:28;;;;;;;9.90;4.22;;;12.50;99.90;;;;;;5117091;27;20119;-88
2022/04/30 11:31:03;;;;;;;10.38;4.43;;;13.50;99.90;;;;;;5120143;27;20389;-90
2022/04/30 11:33:36;;;;;;;10.75;4.75;;;13.40;99.90;;;;;;5118271;27;20118;-90
2022/04/30 11:36:02;;;;;;;;;;;13.80;99.90;;;;;;5114116;28;20130;-90
2022/04/30 11:38:28;;;;;;;8.98;3.90;;;13.30;99.90;;;;;;5115476;28;20015;-89
2022/04/30 11:41:02;;;;;;;9.00;3.97;;;13.40;99.90;;;;;;5114115;28;20486;-88
2022/04/30 11:43:28;;;;;;;9.05;4.45;;;13.80;99.90;;;;;;5119093;28;20066;-89
2022/04/30 11:46:00;;;;;;;17.90;4.82;;;13.80;99.90;;;;;;5114739;28;20495;-88
2022/04/30 11:49:06;;;;;;;10.75;4.40;;;13.50;99.90;;;;;;5113922;28;20069;-89
2022/04/30 11:51:31;;;;;;;10.15;4.93;;;13.70;99.90;;;;;;5091352;28;20047;-89
2022/04/30 11:53:57;;;;;;;10.63;4.70;;;13.30;99.90;;;;;;5115407;28;20051;-90
2022/04/30 11:56:23;;;;;;;10.63;4.55;;;14.30;99.90;;;;;;5111715;28;20406;-90
2022/04/30 11:58:49;;;;;;;10.40;4.50;;;13.80;99.90;;;;;;5112796;28;20069;-88
2022/04/30 12:01:28;;;;;;;9.20;4.40;;;13.40;99.90;;;;;;5108850;28;20028;-91
2022/04/30 12:03:56;;;;;;;9.20;4.00;;;14.00;99.90;;;;;;5108857;27;20039;-91
2022/04/30 12:06:24;;;;;;;8.95;3.90;;;14.20;99.90;;;;;;5117667;27;20040;-90
2022/04/30 12:08:49;;;;;;;9.80;3.97;;;14.40;99.90;;;;;;5121997;27;20047;-90
2022/04/30 12:11:15;;;;;;;10.60;4.45;;;13.60;99.90;;;;;;5120838;27;20047;-90
2022/04/30 12:13:41;;;;;;;9.65;4.88;;;13.70;99.90;;;;;;5125064;27;20099;-91
2022/04/30 12:16:16;;;;;;;9.45;4.40;;;13.80;99.90;;;;;;5123889;27;20043;-90
2022/04/30 12:24:40;;;;;;;8.77;4.35;;;14.10;99.90;;;;;;5123563;27;20512;-91
2022/04/30 12:27:10;;;;;;;;;;;13.80;99.90;;;;;;5123662;27;20077;-91
2022/04/30 12:29:44;;;;;;;9.88;4.40;;;13.90;99.90;;;;;;5123612;27;19927;-90
2022/04/30 12:32:21;;;;;;;11.82;4.10;;;13.70;99.90;;;;;;5122337;27;20058;-91
2022/04/30 12:34:54;;;;;;;10.27;4.15;;;13.60;99.90;;;;;;5119301;27;20514;-90
2022/04/30 12:37:34;;;;;;;9.23;3.80;;;13.30;99.90;;;;;;5123508;27;20499;-89
2022/04/30 12:40:18;;;;;;;11.90;3.60;;;13.60;99.90;;;;;;5113308;27;20044;-93
2022/04/30 12:42:59;;;;;;;9.40;3.80;;;13.60;99.90;;;;;;5094088;28;20097;-92
2022/04/30 12:45:44;;;;;;;9.57;3.78;;;14.40;99.90;;;;;;5093709;28;20044;-92
2022/04/30 12:48:10;;;;;;;9.00;3.47;;;13.00;99.90;;;;;;5125295;28;20040;-91
2022/04/30 12:50:39;;;;;;;9.90;3.75;;;13.70;99.90;;;;;;5106393;28;20120;-91
2022/04/30 12:53:09;;;;;;;8.02;3.42;;;13.30;99.90;;;;;;5092711;28;20044;-90
2022/04/30 12:55:45;;;;;;;9.57;3.50;;;13.10;99.90;;;;;;5095447;28;20048;-90
2022/04/30 12:58:13;;;;;;;8.82;3.28;;;13.70;99.90;;;;;;5101156;28;20047;-90
2022/04/30 13:00:40;;;;;;;9.70;3.58;;;13.90;99.90;;;;;;5112459;27;20097;-91
2022/04/30 13:03:15;;;;;;;9.23;3.55;;;12.90;99.90;;;;;;5116515;27;20039;-91
2022/04/30 13:05:53;;;;;;;8.55;3.42;;;12.40;99.90;;;;;;5126716;27;20548;-90
2022/04/30 13:13:30;;;;;;;10.32;3.72;;;13.00;99.90;;;;;;5134417;27;20095;-91
2022/04/30 13:14:04;;;;;;;8.70;3.28;;;13.10;99.90;;;;;;5133693;27;20046;-93
2022/04/30 13:16:30;;;;;;;9.45;3.90;;;13.20;99.90;;;;;;5133626;27;20567;-91
2022/04/30 13:18:58;;;;;;;10.02;3.58;;;13.30;99.90;;;;;;5133557;27;20114;-93
2022/04/30 13:21:25;;;;;;;8.52;3.65;;;12.50;99.90;;;;;;5134091;27;20043;-93
2022/04/30 13:23:59;;;;;;;9.10;3.30;;;12.60;99.90;;;;;;5135125;28;20043;-95
2022/04/30 13:26:25;;;;;;;;;;;12.90;99.90;;;;;;5135590;28;20095;-93
2022/04/30 13:28:50;;;;;;;10.02;3.75;;;12.60;99.90;;;;;;5134971;28;19981;-94
2022/04/30 13:31:19;;;;;;;9.00;3.65;;;13.20;99.90;;;;;;5118263;27;20039;-95
2022/04/30 13:33:53;;;;;;;8.82;3.70;;;12.50;99.90;;;;;;5115813;28;20040;-94
2022/04/30 13:36:20;;;;;;;8.95;3.80;;;12.40;99.90;;;;;;5114698;28;20042;-95
2022/04/30 13:39:01;;;;;;;9.63;4.18;;;12.30;99.90;;;;;;5115190;28;20067;-94
2022/04/30 13:41:35;;;;;;;10.35;4.32;;;13.10;99.90;;;;;;5114771;28;20043;-92
2022/04/30 13:44:12;;;;;;;10.52;4.38;;;12.10;99.90;;;;;;5116621;28;20064;-94
2022/04/30 13:46:51;;;;;;;10.48;4.40;;;11.80;99.90;;;;;;5115626;28;20047;-94